createdAt,value
2023-03-04T03:59:18.435Z,0.00
2023-03-04T04:00:18.364Z,0.00
2023-03-04T04:01:18.372Z,0.00
2023-03-04T04:02:18.505Z,0.00
2023-03-04T04:03:18.336Z,0.00
2023-03-04T04:04:18.333Z,0.00
2023-03-04T04:05:18.357Z,0.00
2023-03-04T04:06:18.319Z,0.00
2023-03-04T04:07:18.312Z,0.00
2023-03-04T04:08:18.314Z,0.00
2023-03-04T04:09:18.300Z,0.00
2023-03-04T04:10:18.300Z,0.00
2023-03-04T04:11:18.282Z,0.00
2023-03-04T04:12:18.282Z,0.00
2023-03-04T04:13:18.299Z,0.00
2023-03-04T04:14:18.280Z,0.00
2023-03-04T04:15:18.301Z,0.00
2023-03-04T04:16:18.292Z,0.00
2023-03-04T04:17:18.270Z,0.00
2023-03-04T04:18:18.253Z,0.00
2023-03-04T04:19:18.253Z,0.00
2023-03-04T04:20:18.260Z,0.00
2023-03-04T04:21:18.239Z,0.00
2023-03-04T04:22:18.265Z,0.00
2023-03-04T04:23:18.247Z,0.00
2023-03-04T04:24:18.223Z,0.00
2023-03-04T04:25:18.235Z,0.00
2023-03-04T04:26:18.229Z,0.00
2023-03-04T04:27:18.215Z,0.00
2023-03-04T04:28:18.210Z,0.00
2023-03-04T04:29:18.203Z,0.00
2023-03-04T04:30:18.200Z,0.00
2023-03-04T04:31:18.226Z,0.00
2023-03-04T04:32:18.266Z,0.00
2023-03-04T04:33:18.184Z,0.00
2023-03-04T04:34:18.172Z,0.00
2023-03-04T04:35:18.251Z,0.00
2023-03-04T04:36:18.185Z,0.00
2023-03-04T04:37:18.166Z,0.00
2023-03-04T04:38:18.174Z,0.00
2023-03-04T04:39:18.153Z,0.00
2023-03-04T04:40:18.159Z,0.00
2023-03-04T04:41:18.163Z,0.00
2023-03-04T04:42:18.156Z,0.00
2023-03-04T04:43:18.134Z,0.00
2023-03-04T04:44:18.142Z,0.00
2023-03-04T04:45:18.146Z,0.00
2023-03-04T04:46:18.283Z,0.00
2023-03-04T04:47:18.149Z,0.00
2023-03-04T04:48:18.113Z,0.00
2023-03-04T04:49:18.114Z,0.00
2023-03-04T04:50:18.135Z,0.00
2023-03-04T04:51:18.101Z,0.00
2023-03-04T04:52:18.105Z,0.00
2023-03-04T04:53:18.089Z,0.00
2023-03-04T04:54:18.103Z,0.00
2023-03-04T04:55:18.112Z,0.00
2023-03-04T04:56:18.100Z,0.00
2023-03-04T04:57:18.072Z,0.00
2023-03-04T04:58:18.084Z,0.00
2023-03-04T04:59:18.082Z,0.00
2023-03-04T05:00:18.078Z,0.00
2023-03-04T05:01:18.154Z,0.00
2023-03-04T05:02:18.047Z,0.00
2023-03-04T05:03:18.764Z,0.00
2023-03-04T05:04:18.081Z,0.00
2023-03-04T05:05:18.065Z,0.00
2023-03-04T05:06:18.049Z,0.00
2023-03-04T05:07:18.033Z,0.00
2023-03-04T05:08:18.054Z,0.00
2023-03-04T05:09:18.045Z,0.00
2023-03-04T05:10:18.044Z,0.00
2023-03-04T05:11:18.027Z,0.00
2023-03-04T05:12:18.019Z,0.00
2023-03-04T05:13:18.037Z,0.00
2023-03-04T05:14:18.027Z,0.00
2023-03-04T05:15:18.009Z,0.00
2023-03-04T05:16:18.073Z,0.00
2023-03-04T05:17:18.016Z,0.00
2023-03-04T05:18:18.005Z,0.00
2023-03-04T05:19:18.024Z,0.00
2023-03-04T05:20:17.994Z,0.00
2023-03-04T05:21:18.015Z,0.00
2023-03-04T05:22:17.983Z,0.00
2023-03-04T05:23:17.984Z,0.00
2023-03-04T05:24:17.990Z,0.00
2023-03-04T05:25:17.974Z,0.00
2023-03-04T05:26:17.991Z,0.00
2023-03-04T05:27:17.963Z,0.00
2023-03-04T05:28:17.971Z,0.00
2023-03-04T05:29:17.962Z,0.00
2023-03-04T05:30:17.956Z,0.00
2023-03-04T05:31:18.105Z,0.00
2023-03-04T05:32:18.016Z,0.00
2023-03-04T05:33:17.949Z,0.00
2023-03-04T05:34:17.930Z,0.00
2023-03-04T05:35:17.961Z,0.00
2023-03-04T05:36:17.924Z,0.00
2023-03-04T05:37:17.930Z,0.00
2023-03-04T05:38:17.941Z,0.00
2023-03-04T05:39:17.914Z,0.00
2023-03-04T05:40:17.941Z,0.00
2023-03-04T05:41:17.907Z,0.00
2023-03-04T05:42:17.913Z,0.00
2023-03-04T05:43:17.891Z,0.00
2023-03-04T05:44:17.936Z,0.00
2023-03-04T05:45:17.897Z,0.00
2023-03-04T05:46:17.940Z,0.00
2023-03-04T05:47:17.901Z,0.00
2023-03-04T05:48:17.868Z,0.00
2023-03-04T05:49:17.907Z,0.00
2023-03-04T05:50:17.872Z,0.00
2023-03-04T05:51:17.924Z,0.00
2023-03-04T05:52:17.866Z,0.00
2023-03-04T05:53:17.858Z,0.00
2023-03-04T05:54:17.850Z,0.00
2023-03-04T05:55:17.860Z,0.00
2023-03-04T05:56:17.868Z,0.00
2023-03-04T05:57:17.950Z,0.00
2023-03-04T05:58:17.832Z,0.00
2023-03-04T05:59:17.863Z,0.00
2023-03-04T06:00:17.852Z,0.00
2023-03-04T06:01:17.854Z,0.00
2023-03-04T06:02:17.856Z,0.00
2023-03-04T06:03:17.885Z,0.00
2023-03-04T06:04:17.804Z,0.00
2023-03-04T06:05:17.831Z,0.00
2023-03-04T06:06:17.823Z,0.00
2023-03-04T06:07:17.845Z,0.00
2023-03-04T06:08:17.798Z,0.00
2023-03-04T06:09:17.789Z,0.00
2023-03-04T06:10:17.781Z,0.00
2023-03-04T06:11:17.790Z,0.00
2023-03-04T06:12:17.791Z,0.00
2023-03-04T06:13:17.804Z,0.00
2023-03-04T06:14:17.802Z,0.00
2023-03-04T06:15:17.762Z,0.00
2023-03-04T06:16:17.889Z,0.00
2023-03-04T06:17:17.766Z,0.00
2023-03-04T06:18:17.799Z,0.00
2023-03-04T06:19:17.743Z,0.00
2023-03-04T06:20:17.742Z,0.00
2023-03-04T06:21:17.731Z,0.00
2023-03-04T06:22:17.730Z,0.00
2023-03-04T06:23:17.773Z,0.00
2023-03-04T06:24:17.748Z,0.00
2023-03-04T06:25:17.738Z,0.00
2023-03-04T06:26:17.725Z,0.00
2023-03-04T06:27:17.724Z,0.00
2023-03-04T06:28:17.739Z,0.00
2023-03-04T06:29:17.735Z,0.00
2023-03-04T06:30:17.704Z,0.00
2023-03-04T06:31:17.763Z,0.00
2023-03-04T06:32:17.738Z,0.00
2023-03-04T06:33:17.701Z,0.00
2023-03-04T06:34:17.678Z,0.00
2023-03-04T06:35:17.708Z,0.00
2023-03-04T06:36:17.711Z,0.00
2023-03-04T06:37:17.695Z,5.63
2023-03-04T06:38:17.685Z,5.63
2023-03-04T06:39:17.694Z,5.63
2023-03-04T06:40:17.663Z,5.63
2023-03-04T06:41:17.657Z,5.63
2023-03-04T06:42:17.679Z,5.63
2023-03-04T06:43:17.653Z,5.63
2023-03-04T06:44:17.653Z,0.00
2023-03-04T06:45:17.668Z,5.63
2023-03-04T06:46:17.660Z,5.63
2023-03-04T06:47:17.648Z,5.63
2023-03-04T06:48:17.624Z,5.63
2023-03-04T06:49:17.656Z,5.63
2023-03-04T06:50:17.626Z,5.63
2023-03-04T06:51:17.612Z,5.63
2023-03-04T06:52:17.606Z,5.63
2023-03-04T06:53:17.674Z,5.63
2023-03-04T06:54:17.640Z,11.25
2023-03-04T06:55:17.618Z,5.63
2023-03-04T06:56:17.587Z,5.63
2023-03-04T06:57:17.575Z,5.63
2023-03-04T06:58:17.581Z,5.63
2023-03-04T06:59:17.585Z,5.63
2023-03-04T07:00:17.577Z,5.63
2023-03-04T07:01:17.566Z,11.25
2023-03-04T07:02:17.566Z,11.25
2023-03-04T07:03:17.594Z,11.25
2023-03-04T07:04:17.581Z,11.25
2023-03-04T07:05:17.557Z,16.88
2023-03-04T07:06:17.558Z,11.25
2023-03-04T07:07:17.577Z,16.88
2023-03-04T07:08:17.541Z,16.88
2023-03-04T07:09:17.553Z,11.25
2023-03-04T07:10:17.638Z,11.25
2023-03-04T07:11:17.533Z,16.88
2023-03-04T07:12:17.516Z,11.25
2023-03-04T07:13:17.521Z,11.25
2023-03-04T07:14:17.532Z,11.25
2023-03-04T07:15:17.571Z,11.25
2023-03-04T07:16:17.605Z,11.25
2023-03-04T07:17:17.510Z,11.25
2023-03-04T07:18:17.505Z,11.25
2023-03-04T07:19:17.488Z,11.25
2023-03-04T07:20:17.831Z,11.25
2023-03-04T07:21:17.480Z,16.88
2023-03-04T07:22:17.497Z,16.88
2023-03-04T07:23:17.565Z,16.88
2023-03-04T07:24:17.487Z,16.88
2023-03-04T07:25:17.521Z,16.88
2023-03-04T07:26:17.465Z,16.88
2023-03-04T07:27:17.470Z,16.88
2023-03-04T07:28:17.468Z,16.88
2023-03-04T07:29:17.480Z,16.88
2023-03-04T07:30:17.454Z,11.25
2023-03-04T07:31:17.510Z,16.88
2023-03-04T07:32:17.585Z,11.25
2023-03-04T07:33:17.464Z,11.25
2023-03-04T07:34:17.463Z,11.25
2023-03-04T07:35:17.473Z,16.88
2023-03-04T07:36:17.429Z,16.88
2023-03-04T07:37:17.423Z,22.50
2023-03-04T07:38:17.453Z,22.50
2023-03-04T07:39:17.412Z,22.50
2023-03-04T07:40:17.449Z,22.50
2023-03-04T07:41:17.410Z,22.50
2023-03-04T07:42:17.404Z,16.88
2023-03-04T07:43:17.425Z,16.88
2023-03-04T07:44:17.415Z,22.50
2023-03-04T07:45:17.381Z,28.13
2023-03-04T07:46:17.431Z,28.13
2023-03-04T07:47:17.385Z,28.13
2023-03-04T07:48:17.374Z,28.13
2023-03-04T07:49:17.372Z,28.13
2023-03-04T07:50:18.111Z,28.13
2023-03-04T07:51:17.391Z,22.50
2023-03-04T07:52:17.376Z,22.50
2023-03-04T07:53:17.371Z,28.13
2023-03-04T07:54:17.353Z,28.13
2023-03-04T07:55:17.345Z,28.13
2023-03-04T07:56:17.356Z,28.13
2023-03-04T07:57:17.361Z,22.50
2023-03-04T07:58:17.334Z,28.13
2023-03-04T07:59:17.365Z,28.13
2023-03-04T08:00:17.336Z,28.13
2023-03-04T08:01:17.384Z,28.13
2023-03-04T08:02:17.330Z,28.13
2023-03-04T08:03:17.326Z,22.50
2023-03-04T08:04:17.384Z,22.50
2023-03-04T08:05:17.306Z,22.50
2023-03-04T08:06:17.310Z,22.50
2023-03-04T08:07:17.327Z,22.50
2023-03-04T08:08:17.509Z,22.50
2023-03-04T08:09:17.323Z,28.13
2023-03-04T08:10:17.289Z,28.13
2023-03-04T08:11:17.343Z,28.13
2023-03-04T08:12:17.294Z,28.13
2023-03-04T08:13:17.282Z,28.13
2023-03-04T08:14:17.282Z,28.13
2023-03-04T08:15:17.307Z,39.38
2023-03-04T08:16:17.339Z,39.38
2023-03-04T08:17:17.281Z,45.00
2023-03-04T08:18:17.263Z,33.75
2023-03-04T08:19:17.270Z,39.38
2023-03-04T08:20:17.245Z,39.38
2023-03-04T08:21:17.304Z,50.63
2023-03-04T08:22:17.245Z,50.63
2023-03-04T08:23:17.234Z,33.75
2023-03-04T08:24:17.236Z,39.38
2023-03-04T08:25:17.240Z,45.00
2023-03-04T08:26:17.228Z,45.00
2023-03-04T08:27:17.243Z,39.38
2023-03-04T08:28:17.229Z,45.00
2023-03-04T08:29:17.239Z,45.00
2023-03-04T08:30:17.216Z,39.38
2023-03-04T08:31:17.379Z,45.00
2023-03-04T08:32:17.376Z,39.38
2023-03-04T08:33:17.198Z,33.75
2023-03-04T08:34:17.209Z,28.13
2023-03-04T08:35:17.317Z,33.75
2023-03-04T08:36:17.193Z,33.75
2023-03-04T08:37:17.199Z,39.38
2023-03-04T08:38:17.205Z,45.00
2023-03-04T08:39:17.181Z,33.75
2023-03-04T08:40:17.201Z,33.75
2023-03-04T08:41:17.163Z,39.38
2023-03-04T08:42:17.204Z,50.63
2023-03-04T08:43:17.198Z,39.38
2023-03-04T08:44:17.183Z,39.38
2023-03-04T08:45:17.160Z,33.75
2023-03-04T08:46:17.217Z,28.13
2023-03-04T08:47:17.166Z,33.75
2023-03-04T08:48:17.144Z,33.75
2023-03-04T08:49:17.181Z,39.38
2023-03-04T08:50:17.133Z,39.38
2023-03-04T08:51:17.158Z,45.00
2023-03-04T08:52:17.131Z,45.00
2023-03-04T08:53:17.125Z,39.38
2023-03-04T08:54:17.135Z,45.00
2023-03-04T08:55:17.113Z,45.00
2023-03-04T08:56:17.134Z,61.88
2023-03-04T08:57:17.126Z,90.00
2023-03-04T08:58:17.124Z,90.00
2023-03-04T08:59:17.118Z,78.75
2023-03-04T09:00:17.099Z,78.75
2023-03-04T09:01:17.161Z,84.38
2023-03-04T09:02:17.113Z,67.50
2023-03-04T09:03:17.214Z,73.13
2023-03-04T09:04:17.087Z,61.88
2023-03-04T09:05:17.088Z,56.25
2023-03-04T09:06:17.087Z,50.63
2023-03-04T09:07:17.071Z,50.63
2023-03-04T09:08:17.131Z,56.25
2023-03-04T09:09:17.066Z,56.25
2023-03-04T09:10:17.062Z,61.88
2023-03-04T09:11:17.058Z,73.13
2023-03-04T09:12:17.061Z,73.13
2023-03-04T09:13:17.077Z,61.88
2023-03-04T09:14:17.041Z,67.50
2023-03-04T09:15:17.058Z,84.38
2023-03-04T09:16:17.111Z,95.63
2023-03-04T09:17:17.160Z,112.50
2023-03-04T09:18:17.061Z,112.50
2023-03-04T09:19:17.060Z,84.38
2023-03-04T09:20:17.026Z,101.25
2023-03-04T09:21:17.016Z,112.50
2023-03-04T09:22:17.042Z,112.50
2023-03-04T09:23:17.048Z,146.25
2023-03-04T09:24:17.018Z,101.25
2023-03-04T09:25:17.017Z,135.00
2023-03-04T09:26:17.011Z,135.00
2023-03-04T09:27:17.023Z,129.38
2023-03-04T09:28:17.033Z,112.50
2023-03-04T09:29:17.008Z,95.63
2023-03-04T09:30:17.022Z,78.75
2023-03-04T09:31:17.016Z,84.38
2023-03-04T09:32:17.034Z,61.88
2023-03-04T09:33:17.016Z,50.63
2023-03-04T09:34:16.983Z,45.00
2023-03-04T09:35:17.040Z,45.00
2023-03-04T09:36:17.002Z,39.38
2023-03-04T09:37:16.977Z,33.75
2023-03-04T09:38:17.017Z,28.13
2023-03-04T09:39:16.987Z,33.75
2023-03-04T09:40:16.966Z,39.38
2023-03-04T09:41:16.955Z,39.38
2023-03-04T09:42:16.959Z,33.75
2023-03-04T09:43:17.015Z,39.38
2023-03-04T09:44:16.971Z,45.00
2023-03-04T09:45:16.972Z,50.63
2023-03-04T09:46:16.971Z,45.00
2023-03-04T09:47:16.956Z,45.00
2023-03-04T09:48:16.948Z,45.00
2023-03-04T09:49:17.121Z,61.88
2023-03-04T09:50:16.938Z,78.75
2023-03-04T09:51:16.948Z,84.38
2023-03-04T09:52:16.944Z,90.00
2023-03-04T09:53:16.937Z,67.50
2023-03-04T09:54:16.948Z,84.38
2023-03-04T09:55:16.938Z,90.00
2023-03-04T09:56:16.933Z,90.00
2023-03-04T09:57:16.923Z,84.38
2023-03-04T09:58:16.935Z,84.38
2023-03-04T09:59:16.942Z,78.75
2023-03-04T10:00:16.932Z,67.50
2023-03-04T10:01:16.902Z,73.13
2023-03-04T10:02:16.903Z,95.63
2023-03-04T10:13:34.114Z,101.25
2023-03-04T10:14:34.092Z,90.00
2023-03-04T10:15:34.074Z,84.38
2023-03-04T10:16:34.090Z,95.63
2023-03-04T10:17:34.087Z,90.00
2023-03-04T10:18:34.073Z,112.50
2023-03-04T10:19:34.042Z,135.00
2023-03-04T10:20:34.050Z,135.00
2023-03-04T10:21:34.064Z,123.75
2023-03-04T10:22:34.084Z,112.50
2023-03-04T10:23:34.049Z,101.25
2023-03-04T10:24:34.033Z,84.38
2023-03-04T10:25:34.024Z,73.13
2023-03-04T10:26:34.060Z,73.13
2023-03-04T10:27:34.044Z,61.88
2023-03-04T10:28:34.017Z,56.25
2023-03-04T10:29:34.027Z,45.00
2023-03-04T10:30:34.010Z,39.38
2023-03-04T10:31:34.033Z,39.38
2023-03-04T10:32:34.045Z,39.38
2023-03-04T10:33:33.998Z,39.38
2023-03-04T10:34:33.996Z,45.00
2023-03-04T10:35:33.999Z,45.00
2023-03-04T10:36:34.005Z,39.38
2023-03-04T10:37:33.984Z,39.38
2023-03-04T10:38:33.996Z,45.00
2023-03-04T10:39:33.982Z,56.25
2023-03-04T10:40:33.964Z,67.50
2023-03-04T10:41:34.160Z,45.00
2023-03-04T10:42:34.102Z,45.00
2023-03-04T10:43:33.953Z,67.50
2023-03-04T10:44:33.964Z,84.38
2023-03-04T10:45:34.042Z,90.00
2023-03-04T10:46:33.973Z,84.38
2023-03-04T10:47:33.956Z,78.75
2023-03-04T10:48:33.963Z,78.75
2023-03-04T10:49:33.954Z,73.13
2023-03-04T10:50:33.936Z,67.50
2023-03-04T10:51:33.936Z,73.13
2023-03-04T10:52:33.934Z,73.13
2023-03-04T10:53:33.942Z,78.75
2023-03-04T10:54:33.928Z,78.75
2023-03-04T10:55:33.919Z,84.38
2023-03-04T10:56:33.915Z,90.00
2023-03-04T10:57:33.926Z,95.63
2023-03-04T10:58:33.926Z,106.88
2023-03-04T10:59:33.926Z,118.13
2023-03-04T11:00:33.931Z,146.25
2023-03-04T11:01:33.929Z,174.38
2023-03-04T11:02:33.908Z,258.75
2023-03-04T11:03:33.974Z,185.63
2023-03-04T11:04:33.931Z,106.88
2023-03-04T11:05:33.888Z,106.88
2023-03-04T11:06:33.876Z,106.88
2023-03-04T11:07:43.567Z,106.88
2023-03-04T11:08:33.877Z,106.88
2023-03-04T11:09:33.881Z,101.25
2023-03-04T11:10:33.892Z,95.63
2023-03-04T11:11:33.885Z,95.63
2023-03-04T11:12:33.904Z,95.63
2023-03-04T11:13:33.865Z,101.25
2023-03-04T11:14:33.868Z,112.50
2023-03-04T11:15:33.880Z,135.00
2023-03-04T11:16:33.914Z,168.75
2023-03-04T11:17:33.862Z,196.88
2023-03-04T11:18:33.849Z,191.25
2023-03-04T11:19:33.849Z,157.50
2023-03-04T11:20:33.862Z,129.38
2023-03-04T11:21:33.851Z,112.50
2023-03-04T11:22:33.866Z,78.75
2023-03-04T11:23:33.843Z,73.13
2023-03-04T11:24:33.834Z,73.13
2023-03-04T11:25:33.834Z,67.50
2023-03-04T11:26:33.839Z,50.63
2023-03-04T11:27:33.829Z,61.88
2023-03-04T11:28:33.828Z,78.75
2023-03-04T11:29:33.818Z,95.63
2023-03-04T11:30:33.817Z,101.25
2023-03-04T11:31:33.901Z,90.00
2023-03-04T11:32:33.869Z,90.00
2023-03-04T11:33:33.846Z,101.25
2023-03-04T11:34:33.826Z,101.25
2023-03-04T11:35:33.824Z,101.25
2023-03-04T11:36:33.811Z,106.88
2023-03-04T11:37:33.861Z,118.13
2023-03-04T11:38:33.812Z,106.88
2023-03-04T11:39:33.810Z,123.75
2023-03-04T11:40:33.824Z,151.88
2023-03-04T11:41:33.807Z,191.25
2023-03-04T11:42:34.397Z,202.50
2023-03-04T11:43:33.814Z,208.13
2023-03-04T11:44:33.806Z,151.88
2023-03-04T11:45:34.136Z,95.63
2023-03-04T11:46:33.812Z,61.88
2023-03-04T11:47:33.822Z,45.00
2023-03-04T11:48:33.806Z,33.75
2023-03-04T11:49:33.809Z,33.75
2023-03-04T11:50:33.824Z,39.38
2023-03-04T11:51:33.832Z,45.00
2023-03-04T11:52:33.819Z,50.63
2023-03-04T11:53:33.786Z,45.00
2023-03-04T11:54:33.835Z,39.38
2023-03-04T11:55:33.798Z,39.38
2023-03-04T11:56:33.783Z,45.00
2023-03-04T11:57:33.802Z,67.50
2023-03-04T11:58:33.782Z,95.63
2023-03-04T11:59:33.795Z,135.00
2023-03-04T12:00:33.775Z,174.38
2023-03-04T12:01:33.765Z,286.88
2023-03-04T12:02:33.762Z,292.50
2023-03-04T12:03:33.785Z,106.88
2023-03-04T12:04:33.856Z,90.00
2023-03-04T12:05:33.770Z,84.38
2023-03-04T12:09:32.265Z,208.13
2023-03-04T12:10:32.232Z,320.63
2023-03-04T12:11:32.227Z,427.50
2023-03-04T12:12:32.243Z,253.13
2023-03-04T12:13:32.232Z,213.75
2023-03-04T12:14:32.272Z,208.13
2023-03-04T12:15:32.307Z,146.25
2023-03-04T12:16:32.244Z,118.13
2023-03-04T12:17:32.231Z,106.88
2023-03-04T12:18:32.219Z,123.75
2023-03-04T12:19:34.922Z,112.50
2023-03-04T12:20:32.224Z,106.88
2023-03-04T12:21:32.258Z,106.88
2023-03-04T12:22:32.219Z,101.25
2023-03-04T12:23:32.212Z,106.88
2023-03-04T12:24:32.249Z,101.25
2023-03-04T12:25:32.205Z,101.25
2023-03-04T12:26:32.216Z,101.25
2023-03-04T12:27:32.220Z,101.25
2023-03-04T12:28:32.207Z,106.88
2023-03-04T12:29:32.217Z,118.13
2023-03-04T12:30:32.192Z,135.00
2023-03-04T12:31:32.296Z,140.63
2023-03-04T12:32:32.361Z,163.13
2023-03-04T12:33:32.270Z,219.38
2023-03-04T12:34:32.220Z,286.88
2023-03-04T12:35:32.216Z,382.50
2023-03-04T12:36:32.190Z,624.38
2023-03-04T12:37:34.512Z,191.25
2023-03-04T12:38:32.191Z,163.13
2023-03-04T12:39:32.202Z,135.00
2023-03-04T12:40:32.202Z,112.50
2023-03-04T12:41:32.171Z,90.00
2023-03-04T12:42:32.179Z,67.50
2023-03-04T12:43:34.406Z,50.63
2023-03-04T12:44:32.169Z,39.38
2023-03-04T12:45:32.178Z,28.13
2023-03-04T12:46:32.225Z,28.13
2023-03-04T12:47:32.168Z,28.13
2023-03-04T12:48:32.201Z,39.38
2023-03-04T12:49:34.545Z,56.25
2023-03-04T12:50:32.188Z,73.13
2023-03-04T12:51:32.167Z,90.00
2023-03-04T12:52:32.184Z,90.00
2023-03-04T12:53:32.204Z,73.13
2023-03-04T12:54:32.187Z,61.88
2023-03-04T12:55:32.204Z,50.63
2023-03-04T12:56:32.145Z,50.63
2023-03-04T12:57:32.151Z,50.63
2023-03-04T12:58:32.161Z,61.88
2023-03-04T12:59:32.175Z,78.75
2023-03-04T13:00:32.141Z,84.38
2023-03-04T13:01:32.165Z,84.38
2023-03-04T13:02:32.302Z,78.75
2023-03-04T13:03:32.236Z,78.75
2023-03-04T13:04:32.163Z,90.00
2023-03-04T13:05:32.182Z,101.25
2023-03-04T13:06:32.122Z,101.25
2023-03-04T13:07:32.128Z,90.00
2023-03-04T13:08:32.129Z,78.75
2023-03-04T13:09:32.175Z,67.50
2023-03-04T13:10:32.141Z,61.88
2023-03-04T13:11:32.118Z,50.63
2023-03-04T13:12:32.146Z,50.63
2023-03-04T13:13:32.210Z,50.63
2023-03-04T13:14:32.126Z,50.63
2023-03-04T13:15:32.162Z,56.25
2023-03-04T13:16:32.134Z,56.25
2023-03-04T13:17:32.101Z,56.25
2023-03-04T13:18:32.097Z,56.25
2023-03-04T13:19:32.108Z,56.25
2023-03-04T13:20:32.095Z,67.50
2023-03-04T13:21:32.109Z,112.50
2023-03-04T13:22:32.091Z,219.38
2023-03-04T13:23:32.088Z,309.38
2023-03-04T13:24:32.096Z,393.75
2023-03-04T13:25:32.140Z,191.25
2023-03-04T13:26:32.090Z,140.63
2023-03-04T13:27:32.122Z,118.13
2023-03-04T13:28:32.105Z,112.50
2023-03-04T13:29:32.068Z,106.88
2023-03-04T13:30:32.091Z,101.25
2023-03-04T13:31:32.084Z,101.25
2023-03-04T13:32:32.134Z,90.00
2023-03-04T13:33:32.086Z,84.38
2023-03-04T13:34:32.063Z,78.75
2023-03-04T13:35:32.151Z,73.13
2023-03-04T13:36:32.058Z,67.50
2023-03-04T13:37:32.068Z,67.50
2023-03-04T13:38:32.060Z,67.50
2023-03-04T13:39:32.069Z,73.13
2023-03-04T13:40:32.056Z,73.13
2023-03-04T13:41:32.057Z,67.50
2023-03-04T13:42:32.040Z,67.50
2023-03-04T13:43:32.040Z,61.88
2023-03-04T13:44:32.026Z,56.25
2023-03-04T13:45:32.076Z,56.25
2023-03-04T13:46:32.027Z,50.63
2023-03-04T13:47:32.021Z,50.63
2023-03-04T13:48:32.043Z,50.63
2023-03-04T13:49:32.039Z,50.63
2023-03-04T13:50:32.071Z,45.00
2023-03-04T13:51:32.006Z,39.38
2023-03-04T13:52:32.028Z,33.75
2023-03-04T13:53:32.002Z,33.75
2023-03-04T13:54:32.049Z,33.75
2023-03-04T13:55:32.027Z,33.75
2023-03-04T13:56:32.001Z,39.38
2023-03-04T13:57:32.029Z,50.63
2023-03-04T13:58:32.005Z,56.25
2023-03-04T13:59:32.007Z,73.13
2023-03-04T14:00:32.031Z,90.00
2023-03-04T14:01:31.996Z,101.25
2023-03-04T14:02:31.980Z,95.63
2023-03-04T14:03:32.024Z,101.25
2023-03-04T14:04:31.973Z,118.13
2023-03-04T14:05:32.002Z,146.25
2023-03-04T14:06:31.990Z,185.63
2023-03-04T14:07:31.982Z,202.50
2023-03-04T14:08:31.997Z,180.00
2023-03-04T14:09:31.956Z,151.88
2023-03-04T14:10:32.062Z,140.63
2023-03-04T14:13:05.036Z,118.13
2023-03-04T14:14:05.026Z,118.13
2023-03-04T14:15:05.011Z,168.75
2023-03-04T14:16:05.105Z,196.88
2023-03-04T14:17:05.058Z,180.00
2023-03-04T14:18:05.009Z,95.63
2023-03-04T14:19:05.033Z,73.13
2023-03-04T14:20:05.000Z,73.13
2023-03-04T14:21:05.008Z,73.13
2023-03-04T14:22:05.017Z,84.38
2023-03-04T14:23:04.994Z,90.00
2023-03-04T14:24:05.005Z,61.88
2023-03-04T14:25:04.987Z,50.63
2023-03-04T14:26:04.988Z,39.38
2023-03-04T14:27:04.987Z,33.75
2023-03-04T14:28:05.008Z,33.75
2023-03-04T14:29:05.020Z,28.13
2023-03-04T14:30:04.980Z,22.50
2023-03-04T14:31:04.974Z,22.50
2023-03-04T14:32:05.135Z,22.50
2023-03-04T14:33:04.979Z,28.13
2023-03-04T14:34:04.979Z,28.13
2023-03-04T14:35:04.956Z,39.38
2023-03-04T14:36:04.964Z,45.00
2023-03-04T14:37:04.981Z,56.25
2023-03-04T14:38:04.963Z,61.88
2023-03-04T14:39:04.977Z,67.50
2023-03-04T14:40:04.967Z,84.38
2023-03-04T14:41:04.982Z,90.00
2023-03-04T14:42:04.938Z,101.25
2023-03-04T14:43:04.946Z,101.25
2023-03-04T14:44:04.941Z,123.75
2023-03-04T14:45:04.946Z,185.63
2023-03-04T14:46:04.984Z,292.50
2023-03-04T14:47:08.202Z,337.50
2023-03-04T14:48:04.939Z,860.63
2023-03-04T14:49:04.939Z,990.00
2023-03-04T14:50:04.952Z,1653.75
2023-03-04T14:51:04.923Z,343.13
2023-03-04T14:52:04.940Z,500.63
2023-03-04T14:53:04.944Z,1732.50
2023-03-04T14:54:04.915Z,185.63
2023-03-04T14:55:04.949Z,151.88
2023-03-04T14:56:04.910Z,123.75
2023-03-04T14:57:04.898Z,78.75
2023-03-04T14:58:04.902Z,61.88
2023-03-04T14:59:04.900Z,50.63
2023-03-04T15:00:04.898Z,39.38
2023-03-04T15:01:05.022Z,39.38
2023-03-04T15:02:04.910Z,33.75
2023-03-04T15:03:04.897Z,28.13
2023-03-04T15:04:04.984Z,22.50
2023-03-04T15:05:11.747Z,22.50
2023-03-04T15:06:04.929Z,16.88
2023-03-04T15:07:04.875Z,16.88
2023-03-04T15:08:04.878Z,16.88
2023-03-04T15:09:04.875Z,22.50
2023-03-04T15:10:04.870Z,28.13
2023-03-04T15:11:04.900Z,28.13
2023-03-04T15:12:04.879Z,28.13
2023-03-04T15:13:04.883Z,28.13
2023-03-04T15:14:04.897Z,28.13
2023-03-04T15:15:04.877Z,33.75
2023-03-04T15:16:04.943Z,39.38
2023-03-04T15:17:04.984Z,39.38
2023-03-04T15:18:04.850Z,39.38
2023-03-04T15:19:04.851Z,45.00
2023-03-04T15:20:04.843Z,45.00
2023-03-04T15:21:04.877Z,56.25
2023-03-04T15:22:04.963Z,73.13
2023-03-04T15:23:04.852Z,90.00
2023-03-04T15:24:04.856Z,95.63
2023-03-04T15:25:04.874Z,101.25
2023-03-04T15:26:04.836Z,101.25
2023-03-04T15:27:04.829Z,106.88
2023-03-04T15:28:04.825Z,129.38
2023-03-04T15:29:04.827Z,135.00
2023-03-04T15:30:04.821Z,129.38
2023-03-04T15:31:04.922Z,106.88
2023-03-04T15:32:04.838Z,78.75
2023-03-04T15:33:04.836Z,56.25
2023-03-04T15:34:04.822Z,45.00
2023-03-04T15:35:04.812Z,45.00
2023-03-04T15:36:04.821Z,39.38
2023-03-04T15:37:04.783Z,39.38
2023-03-04T15:38:04.798Z,39.38
2023-03-04T15:39:04.796Z,39.38
2023-03-04T15:40:04.783Z,50.63
2023-03-04T15:41:04.772Z,56.25
2023-03-04T15:42:04.783Z,67.50
2023-03-04T15:43:04.789Z,61.88
2023-03-04T15:44:04.810Z,67.50
2023-03-04T15:45:04.797Z,78.75
2023-03-04T15:46:04.805Z,67.50
2023-03-04T15:47:04.754Z,67.50
2023-03-04T15:48:04.772Z,78.75
2023-03-04T15:49:04.758Z,73.13
2023-03-04T15:50:04.762Z,61.88
2023-03-04T15:51:04.744Z,56.25
2023-03-04T15:52:04.742Z,45.00
2023-03-04T15:53:04.827Z,39.38
2023-03-04T15:54:04.783Z,39.38
2023-03-04T15:55:04.743Z,45.00
2023-03-04T15:56:04.725Z,45.00
2023-03-04T15:57:04.713Z,45.00
2023-03-04T15:58:04.724Z,39.38
2023-03-04T15:59:04.752Z,39.38
2023-03-04T16:00:04.723Z,39.38
2023-03-04T16:01:04.763Z,33.75
2023-03-04T16:12:44.093Z,16.88
2023-03-04T16:13:44.031Z,16.88
2023-03-04T16:14:44.034Z,16.88
2023-03-04T16:15:44.045Z,22.50
2023-03-04T16:16:44.053Z,22.50
2023-03-04T16:17:44.048Z,22.50
2023-03-04T16:18:44.037Z,22.50
2023-03-04T16:19:44.018Z,16.88
2023-03-04T16:20:44.013Z,16.88
2023-03-04T16:21:43.984Z,11.25
2023-03-04T16:22:43.991Z,11.25
2023-03-04T16:23:44.007Z,11.25
2023-03-04T16:24:43.986Z,16.88
2023-03-04T16:25:43.972Z,16.88
2023-03-04T16:26:43.965Z,16.88
2023-03-04T16:27:43.962Z,16.88
2023-03-04T16:28:43.988Z,16.88
2023-03-04T16:29:43.953Z,11.25
2023-03-04T16:30:44.158Z,11.25
2023-03-04T16:31:43.954Z,11.25
2023-03-04T16:32:43.951Z,11.25
2023-03-04T16:33:43.953Z,11.25
2023-03-04T16:34:43.936Z,11.25
2023-03-04T16:35:44.094Z,11.25
2023-03-04T16:36:44.047Z,11.25
2023-03-04T16:37:43.930Z,11.25
2023-03-04T16:38:43.940Z,11.25
2023-03-04T16:39:43.939Z,5.63
2023-03-04T16:40:43.916Z,5.63
2023-03-04T16:41:43.904Z,5.63
2023-03-04T16:42:43.921Z,5.63
2023-03-04T16:43:43.941Z,5.63
2023-03-04T16:44:43.913Z,5.63
2023-03-04T16:45:43.892Z,5.63
2023-03-04T16:46:43.919Z,0.00
2023-03-04T16:47:43.885Z,0.00
2023-03-04T16:48:43.899Z,0.00
2023-03-04T16:49:43.874Z,5.63
2023-03-04T16:50:43.883Z,5.63
2023-03-04T16:51:43.863Z,5.63
2023-03-04T16:52:43.873Z,5.63
2023-03-04T16:53:43.883Z,5.63
2023-03-04T16:54:43.857Z,5.63
2023-03-04T16:55:43.865Z,5.63
2023-03-04T16:56:43.849Z,5.63
2023-03-04T16:57:43.853Z,5.63
2023-03-04T16:58:43.859Z,0.00
2023-03-04T16:59:43.853Z,0.00
2023-03-04T17:00:43.842Z,0.00
2023-03-04T17:01:43.951Z,0.00
2023-03-04T17:02:43.889Z,0.00
2023-03-04T17:03:43.849Z,0.00
2023-03-04T17:04:43.817Z,0.00
2023-03-04T17:05:43.816Z,0.00
2023-03-04T17:06:43.810Z,0.00
2023-03-04T17:07:43.815Z,0.00
2023-03-04T17:08:43.801Z,0.00
2023-03-04T17:09:43.786Z,0.00
2023-03-04T17:10:43.799Z,0.00
2023-03-04T17:11:43.818Z,0.00
2023-03-04T17:12:43.787Z,0.00
2023-03-04T17:13:43.796Z,0.00
2023-03-04T17:14:43.773Z,0.00
2023-03-04T17:15:43.803Z,0.00
2023-03-04T17:16:43.788Z,0.00
2023-03-04T17:17:43.778Z,0.00
2023-03-04T17:18:43.769Z,0.00
2023-03-04T17:19:43.748Z,0.00